Time;durP1;ratioP1;P1;durP2;ratioP2;P2;SDS_P1;SDS_P2;PMS_P1;PMS_P2;Temp;Humidity;BMP_temperature;BMP_pressure;BME280_temperature;BME280_humidity;BME280_pressure;Samples;Min_cycle;Max_cycle;Signal;HPM_P1;HPM_P2
2023/10/22 00:01:37;;;;;;;;;;;;;;;11.25;100.00;99118.28;5083846;28;19938;-73
2023/10/22 00:04:21;;;;;;;;;;;;;;;11.25;100.00;99115.50;5097967;28;20244;-73
2023/10/22 00:07:05;;;;;;;;;;;;;;;11.23;100.00;99126.16;5099957;28;19976;-73
2023/10/22 00:09:49;;;;;;;;;;;;;;;11.25;100.00;99123.81;5096483;28;19919;-73
2023/10/22 00:12:33;;;;;;;;;;;;;;;11.23;100.00;99125.31;5093569;28;20418;-73
2023/10/22 00:15:17;;;;;;;;;;;;;;;11.24;100.00;99122.22;5097495;28;19966;-73
2023/10/22 00:18:01;;;;;;;;;;;;;;;11.25;100.00;99126.59;5101148;28;19957;-73
2023/10/22 00:20:45;;;;;;;;;;;;;;;11.26;100.00;99131.03;5100241;28;19979;-74
2023/10/22 00:23:29;;;;;;;;;;;;;;;11.24;100.00;99133.31;5100554;28;19966;-73
2023/10/22 00:26:14;;;;;;;;;;;;;;;11.25;100.00;99139.69;5100510;28;20417;-73
2023/10/22 00:28:58;;;;;;;;;;;;;;;11.22;100.00;99140.34;5095527;28;19923;-73
2023/10/22 00:31:42;;;;;;;;;;;;;;;11.25;100.00;99143.28;5099322;28;19938;-73
2023/10/22 00:34:26;;;;;;;;;;;;;;;11.24;100.00;99149.19;5086898;28;19961;-73
2023/10/22 00:37:10;;;;;;;;;;;;;;;11.18;100.00;99145.78;5098522;28;19927;-73
2023/10/22 00:39:54;;;;;;;;;;;;;;;11.16;100.00;99148.88;5097479;28;19923;-73
2023/10/22 00:42:38;;;;;;;;;;;;;;;11.15;100.00;99155.59;5081022;28;19923;-73
2023/10/22 00:45:22;;;;;;;;;;;;;;;11.15;100.00;99163.09;5098180;28;19919;-73
2023/10/22 00:48:06;;;;;;;;;;;;;;;11.11;100.00;99165.72;5078883;28;19918;-73
2023/10/22 00:50:51;;;;;;;;;;;;;;;11.10;100.00;99168.84;5087401;28;20007;-73
2023/10/22 00:53:35;;;;;;;;;;;;;;;11.09;100.00;99176.38;5070558;28;19985;-73
2023/10/22 00:56:20;;;;;;;;;;;;;;;11.05;100.00;99175.38;5078552;28;19979;-73
2023/10/22 00:59:04;;;;;;;;;;;;;;;11.03;100.00;99180.47;5087714;28;19977;-73
2023/10/22 01:01:48;;;;;;;;;;;;;;;11.02;100.00;99192.69;5086014;28;19935;-73
2023/10/22 01:04:32;;;;;;;;;;;;;;;11.02;100.00;99198.25;5099354;28;19957;-73
2023/10/22 01:07:16;;;;;;;;;;;;;;;11.03;100.00;99194.34;5099540;28;19923;-73
2023/10/22 01:10:00;;;;;;;;;;;;;;;11.00;100.00;99206.09;5083681;28;19961;-73
2023/10/22 01:12:44;;;;;;;;;;;;;;;10.98;100.00;99222.31;5079535;28;19920;-73
2023/10/22 01:15:28;;;;;;;;;;;;;;;10.95;100.00;99217.41;5092106;28;19931;-73
2023/10/22 01:18:12;;;;;;;;;;;;;;;10.95;100.00;99217.41;5106698;28;19950;-73
2023/10/22 01:20:56;;;;;;;;;;;;;;;10.91;100.00;99220.00;5108776;28;19919;-73
2023/10/22 01:23:40;;;;;;;;;;;;;;;10.92;100.00;99215.25;5098021;28;20063;-73
2023/10/22 01:26:24;;;;;;;;;;;;;;;10.94;100.00;99218.53;5087199;28;20405;-73
2023/10/22 01:29:08;;;;;;;;;;;;;;;10.92;100.00;99220.81;5096065;28;20047;-73
2023/10/22 01:31:52;;;;;;;;;;;;;;;10.91;100.00;99225.56;5097986;28;19923;-73
2023/10/22 01:34:37;;;;;;;;;;;;;;;10.89;100.00;99222.31;5097555;28;20033;-73
2023/10/22 01:37:20;;;;;;;;;;;;;;;10.88;100.00;99231.78;5095780;28;20189;-73
2023/10/22 01:40:05;;;;;;;;;;;;;;;10.87;100.00;99235.69;5106586;28;20038;-73
2023/10/22 01:42:50;;;;;;;;;;;;;;;10.87;100.00;99246.81;5077663;28;20306;-73
2023/10/22 01:45:34;;;;;;;;;;;;;;;10.84;100.00;99244.69;5098921;28;19920;-73
2023/10/22 01:48:18;;;;;;;;;;;;;;;10.85;100.00;99249.09;5097843;28;20122;-73
2023/10/22 01:51:02;;;;;;;;;;;;;;;10.84;100.00;99247.47;5098661;28;19919;-73
2023/10/22 01:53:46;;;;;;;;;;;;;;;10.81;100.00;99250.91;5068629;28;19934;-73
2023/10/22 01:56:30;;;;;;;;;;;;;;;10.80;100.00;99256.78;5092372;28;19934;-73
2023/10/22 01:59:13;;;;;;;;;;;;;;;10.78;100.00;99264.59;5077431;28;19998;-73
2023/10/22 02:01:58;;;;;;;;;;;;;;;10.76;100.00;99267.72;5083242;28;19965;-73
2023/10/22 02:04:42;;;;;;;;;;;;;;;10.77;100.00;99269.34;5097142;28;19918;-73
2023/10/22 02:07:26;;;;;;;;;;;;;;;10.73;100.00;99279.47;5078199;28;19966;-73
2023/10/22 02:10:10;;;;;;;;;;;;;;;10.75;100.00;99271.63;5086490;28;19996;-73
2023/10/22 02:12:53;;;;;;;;;;;;;;;10.72;100.00;99278.63;5094168;28;19927;-73
2023/10/22 02:15:37;;;;;;;;;;;;;;;10.71;100.00;99281.75;5097216;28;20412;-73
2023/10/22 02:18:21;;;;;;;;;;;;;;;10.68;100.00;99276.84;5078880;28;19919;-73
2023/10/22 02:21:05;;;;;;;;;;;;;;;10.68;100.00;99279.63;5108245;28;20266;-73
2023/10/22 02:23:50;;;;;;;;;;;;;;;10.68;100.00;99296.28;5091327;28;19920;-73
2023/10/22 02:26:34;;;;;;;;;;;;;;;10.71;100.00;99288.13;5086115;28;19919;-73
2023/10/22 02:29:18;;;;;;;;;;;;;;;10.70;100.00;99291.25;5095399;28;19919;-73
2023/10/22 02:32:03;;;;;;;;;;;;;;;10.68;100.00;99287.97;5098045;28;19919;-73
2023/10/22 02:34:47;;;;;;;;;;;;;;;10.65;100.00;99294.16;5090573;28;19924;-73
2023/10/22 02:37:31;;;;;;;;;;;;;;;10.67;100.00;99303.81;5095933;28;19928;-73
2023/10/22 02:40:15;;;;;;;;;;;;;;;10.64;100.00;99298.06;5080139;28;20008;-73
2023/10/22 02:42:59;;;;;;;;;;;;;;;10.64;100.00;99303.63;5088142;28;19937;-73
2023/10/22 02:45:52;;;;;;;;;;;;;;;10.67;100.00;99308.53;5083912;28;20275;-73
2023/10/22 02:48:35;;;;;;;;;;;;;;;10.67;100.00;99311.28;5080607;28;19919;-73
2023/10/22 02:51:20;;;;;;;;;;;;;;;10.64;100.00;99309.16;5076665;28;19919;-73
2023/10/22 02:54:04;;;;;;;;;;;;;;;10.61;100.00;99316.19;5069680;28;19931;-73
2023/10/22 02:56:47;;;;;;;;;;;;;;;10.62;100.00;99328.13;5097898;28;19920;-73
2023/10/22 02:59:31;;;;;;;;;;;;;;;10.61;100.00;99332.03;5090796;28;19947;-73
2023/10/22 03:02:15;;;;;;;;;;;;;;;10.57;100.00;99331.06;5096720;28;20371;-73
2023/10/22 03:04:59;;;;;;;;;;;;;;;10.56;100.00;99332.19;5094937;28;19962;-73
2023/10/22 03:07:43;;;;;;;;;;;;;;;10.55;100.00;99344.44;5082317;28;19965;-73
2023/10/22 03:10:27;;;;;;;;;;;;;;;10.54;100.00;99340.84;5076284;28;20307;-73
2023/10/22 03:13:11;;;;;;;;;;;;;;;10.51;100.00;99342.31;5096442;28;19919;-73
2023/10/22 03:15:57;;;;;;;;;;;;;;;10.49;100.00;99352.09;5092005;28;19966;-73
2023/10/22 03:18:42;;;;;;;;;;;;;;;10.51;100.00;99347.03;5076501;28;20005;-73
2023/10/22 03:21:28;;;;;;;;;;;;;;;10.48;100.00;99353.25;5083103;28;20429;-73
2023/10/22 03:24:12;;;;;;;;;;;;;;;10.45;100.00;99351.94;5097594;28;20264;-73
2023/10/22 03:26:56;;;;;;;;;;;;;;;10.40;100.00;99360.41;5090324;28;19919;-73
2023/10/22 03:29:40;;;;;;;;;;;;;;;10.39;100.00;99367.09;5084254;28;19926;-73
2023/10/22 03:32:24;;;;;;;;;;;;;;;10.30;100.00;99371.78;5094430;28;19919;-73
2023/10/22 03:35:08;;;;;;;;;;;;;;;10.25;100.00;99369.09;5093150;28;20069;-73
2023/10/22 03:37:52;;;;;;;;;;;;;;;10.24;100.00;99373.03;5070391;28;19931;-73
2023/10/22 03:40:36;;;;;;;;;;;;;;;10.18;100.00;99379.84;5097858;28;19966;-73
2023/10/22 03:43:20;;;;;;;;;;;;;;;10.12;100.00;99383.91;5097025;28;19959;-73
2023/10/22 03:46:04;;;;;;;;;;;;;;;10.05;100.00;99385.16;5100280;28;19919;-73
2023/10/22 03:48:48;;;;;;;;;;;;;;;9.97;100.00;99390.66;5085500;28;19918;-73
2023/10/22 03:51:32;;;;;;;;;;;;;;;9.92;100.00;99399.94;5096040;28;19919;-73
2023/10/22 03:54:16;;;;;;;;;;;;;;;9.87;100.00;99397.31;5108995;28;19976;-73
2023/10/22 03:57:00;;;;;;;;;;;;;;;9.80;100.00;99402.47;5100766;28;20252;-73
2023/10/22 03:59:44;;;;;;;;;;;;;;;9.73;100.00;99407.66;5099936;28;19965;-73
2023/10/22 04:02:28;;;;;;;;;;;;;;;9.69;100.00;99401.09;5119007;27;19920;-73
2023/10/22 04:05:12;;;;;;;;;;;;;;;9.60;100.00;99418.47;5098768;28;20364;-73
2023/10/22 04:07:56;;;;;;;;;;;;;;;9.58;100.00;99425.47;5109886;28;19919;-73
2023/10/22 04:10:44;;;;;;;;;;;;;;;9.53;100.00;99423.66;5100790;28;19934;-73
2023/10/22 04:13:28;;;;;;;;;;;;;;;9.46;100.00;99430.75;5087524;28;19942;-73
2023/10/22 04:16:15;;;;;;;;;;;;;;;9.39;100.00;99423.69;5099714;28;19965;-73
2023/10/22 04:18:59;;;;;;;;;;;;;;;9.36;100.00;99431.78;5093086;28;20417;-73
2023/10/22 04:21:43;;;;;;;;;;;;;;;9.33;100.00;99433.25;5088735;28;19920;-73
2023/10/22 04:24:27;;;;;;;;;;;;;;;9.28;100.00;99438.91;5099104;28;20371;-73
2023/10/22 04:27:11;;;;;;;;;;;;;;;9.21;100.00;99435.72;5100294;28;19918;-73
2023/10/22 04:29:55;;;;;;;;;;;;;;;9.15;100.00;99437.78;5093564;28;19919;-73
2023/10/22 04:32:39;;;;;;;;;;;;;;;9.13;100.00;99442.81;5099767;28;19965;-73
2023/10/22 04:35:23;;;;;;;;;;;;;;;9.07;100.00;99446.84;5081522;28;19927;-73
2023/10/22 04:38:08;;;;;;;;;;;;;;;9.06;100.00;99453.50;5078406;28;19928;-73
2023/10/22 04:40:51;;;;;;;;;;;;;;;9.00;100.00;99452.00;5083201;28;20408;-73
2023/10/22 04:43:35;;;;;;;;;;;;;;;8.95;100.00;99450.13;5097941;28;19919;-73
2023/10/22 04:46:19;;;;;;;;;;;;;;;8.93;100.00;99457.13;5099150;28;19918;-73
2023/10/22 04:49:04;;;;;;;;;;;;;;;8.89;100.00;99459.69;5086695;28;19969;-73
2023/10/22 04:51:47;;;;;;;;;;;;;;;8.84;100.00;99464.50;5093974;28;19919;-73
2023/10/22 04:54:32;;;;;;;;;;;;;;;8.81;100.00;99454.06;5091066;28;20010;-73
2023/10/22 04:57:17;;;;;;;;;;;;;;;8.76;100.00;99459.69;5086091;28;19919;-73
2023/10/22 05:00:01;;;;;;;;;;;;;;;8.72;100.00;99457.53;5097145;28;20421;-73
2023/10/22 05:02:45;;;;;;;;;;;;;;;8.74;100.00;99465.53;5100566;28;19930;-73
2023/10/22 05:05:29;;;;;;;;;;;;;;;8.67;100.00;99462.34;5101634;28;20272;-73
2023/10/22 05:08:13;;;;;;;;;;;;;;;8.63;100.00;99459.34;5112727;28;19965;-73
2023/10/22 05:10:57;;;;;;;;;;;;;;;8.61;100.00;99471.84;5102960;28;19993;-73
2023/10/22 05:13:42;;;;;;;;;;;;;;;8.58;100.00;99478.00;5084223;28;19946;-73
2023/10/22 05:16:26;;;;;;;;;;;;;;;8.55;100.00;99475.84;5098049;28;19970;-73
2023/10/22 05:19:11;;;;;;;;;;;;;;;8.52;100.00;99479.25;5088766;28;19939;-73
2023/10/22 05:21:55;;;;;;;;;;;;;;;8.50;100.00;99482.34;5098283;28;20015;-73
2023/10/22 05:24:38;;;;;;;;;;;;;;;8.47;100.00;99482.94;5085054;28;19997;-73
2023/10/22 05:27:23;;;;;;;;;;;;;;;8.45;100.00;99485.19;5094976;28;19927;-73
2023/10/22 05:30:07;;;;;;;;;;;;;;;8.42;100.00;99494.09;5092008;28;19923;-73
2023/10/22 05:32:51;;;;;;;;;;;;;;;8.38;100.00;99495.78;5085966;28;20260;-73
2023/10/22 05:35:35;;;;;;;;;;;;;;;8.34;100.00;99495.59;5109452;28;19927;-73
2023/10/22 05:38:20;;;;;;;;;;;;;;;8.32;100.00;99497.00;5097250;28;20360;-73
2023/10/22 05:41:04;;;;;;;;;;;;;;;8.27;100.00;99495.13;5087559;28;20029;-73
2023/10/22 05:43:48;;;;;;;;;;;;;;;8.26;100.00;99499.03;5083536;28;20015;-73
2023/10/22 05:46:32;;;;;;;;;;;;;;;8.22;100.00;99493.31;5097725;28;20443;-73
2023/10/22 05:49:17;;;;;;;;;;;;;;;8.21;100.00;99491.66;5082884;28;19985;-73
2023/10/22 05:52:02;;;;;;;;;;;;;;;8.20;100.00;99491.97;5093488;28;19926;-73
2023/10/22 05:54:45;;;;;;;;;;;;;;;8.16;100.00;99496.44;5076730;28;19988;-73
2023/10/22 05:57:29;;;;;;;;;;;;;;;8.17;100.00;99496.16;5087556;28;19918;-73
2023/10/22 06:00:13;;;;;;;;;;;;;;;8.15;100.00;99501.16;5078720;28;19919;-73
2023/10/22 06:02:57;;;;;;;;;;;;;;;8.10;100.00;99501.25;5091999;28;19919;-73
2023/10/22 06:05:41;;;;;;;;;;;;;;;8.09;100.00;99501.56;5091147;28;20022;-73
2023/10/22 06:08:26;;;;;;;;;;;;;;;8.09;100.00;99505.13;5115190;27;19962;-73
2023/10/22 06:11:10;;;;;;;;;;;;;;;8.03;100.00;99512.69;5078918;28;19992;-73
2023/10/22 06:13:54;;;;;;;;;;;;;;;8.04;100.00;99514.31;5098411;28;19923;-73
2023/10/22 06:16:38;;;;;;;;;;;;;;;8.04;100.00;99519.03;5084329;28;19958;-73
2023/10/22 06:19:22;;;;;;;;;;;;;;;8.02;100.00;99524.88;5093796;28;20005;-73
2023/10/22 06:22:06;;;;;;;;;;;;;;;8.00;100.00;99526.31;5097370;28;19962;-73
2023/10/22 06:24:50;;;;;;;;;;;;;;;7.96;100.00;99525.25;5085276;28;19919;-73
2023/10/22 06:27:34;;;;;;;;;;;;;;;7.89;100.00;99533.13;5098201;28;19983;-73
2023/10/22 06:30:22;;;;;;;;;;;;;;;7.90;100.00;99532.00;5098090;28;19944;-73
2023/10/22 06:33:05;;;;;;;;;;;;;;;7.83;100.00;99533.19;5080032;28;19924;-73
2023/10/22 06:35:49;;;;;;;;;;;;;;;7.82;100.00;99534.31;5091602;28;19923;-73
2023/10/22 06:38:33;;;;;;;;;;;;;;;7.84;100.00;99536.78;5097494;28;19927;-73
2023/10/22 06:41:19;;;;;;;;;;;;;;;7.80;100.00;99542.09;5096686;28;19965;-73
2023/10/22 06:44:04;;;;;;;;;;;;;;;7.80;100.00;99541.25;5091155;28;20265;-73
2023/10/22 06:46:47;;;;;;;;;;;;;;;7.78;100.00;99549.84;5092694;28;19918;-73
2023/10/22 06:49:31;;;;;;;;;;;;;;;7.80;100.00;99555.91;5082473;28;19957;-74
2023/10/22 06:52:15;;;;;;;;;;;;;;;7.79;100.00;99567.25;5063724;28;19919;-76
2023/10/22 06:55:00;;;;;;;;;;;;;;;7.76;100.00;99573.38;5091450;28;20008;-77
2023/10/22 06:57:46;;;;;;;;;;;;;;;7.75;100.00;99574.50;5090811;28;19934;-76
2023/10/22 07:00:29;;;;;;;;;;;;;;;7.74;100.00;99570.91;5105313;28;19938;-77
2023/10/22 07:03:13;;;;;;;;;;;;;;;7.76;100.00;99570.63;5092256;28;20001;-77
2023/10/22 07:05:57;;;;;;;;;;;;;;;7.75;100.00;99583.63;5090758;28;19966;-77
2023/10/22 07:08:42;;;;;;;;;;;;;;;7.78;100.00;99583.03;5087950;28;20280;-76
2023/10/22 07:11:27;;;;;;;;;;;;;;;7.82;100.00;99591.53;5082261;28;19919;-76
2023/10/22 07:14:12;;;;;;;;;;;;;;;7.88;100.00;99592.28;5097184;28;20383;-77
2023/10/22 07:16:56;;;;;;;;;;;;;;;7.91;100.00;99605.50;5086447;28;19965;-76
2023/10/22 07:19:41;;;;;;;;;;;;;;;7.96;100.00;99600.72;5100336;28;19965;-76
2023/10/22 07:22:25;;;;;;;;;;;;;;;8.03;100.00;99606.72;5081731;28;19961;-77
2023/10/22 07:25:09;;;;;;;;;;;;;;;8.09;100.00;99618.53;5085788;28;20368;-77
2023/10/22 07:27:53;;;;;;;;;;;;;;;8.16;100.00;99626.44;5089956;28;19958;-77
2023/10/22 07:30:37;;;;;;;;;;;;;;;8.20;100.00;99617.25;5093013;28;20045;-76
2023/10/22 07:33:22;;;;;;;;;;;;;;;8.28;100.00;99626.81;5080258;28;19973;-77
2023/10/22 07:36:07;;;;;;;;;;;;;;;8.38;100.00;99623.88;5080059;28;19966;-76
2023/10/22 07:38:52;;;;;;;;;;;;;;;8.47;100.00;99633.19;5097826;28;19926;-77
2023/10/22 07:41:36;;;;;;;;;;;;;;;8.57;100.00;99636.91;5092981;28;19919;-76
2023/10/22 07:44:20;;;;;;;;;;;;;;;8.66;100.00;99638.69;5085061;28;19919;-76
2023/10/22 07:47:04;;;;;;;;;;;;;;;8.76;100.00;99646.00;5098081;28;20260;-76
2023/10/22 07:49:51;;;;;;;;;;;;;;;8.87;100.00;99644.69;5079792;28;19924;-76
2023/10/22 07:52:36;;;;;;;;;;;;;;;9.01;100.00;99655.78;5076764;28;19941;-76
2023/10/22 07:55:21;;;;;;;;;;;;;;;9.12;100.00;99654.47;5100070;28;20284;-76
2023/10/22 07:58:05;;;;;;;;;;;;;;;9.27;100.00;99660.84;5080456;28;20436;-76
2023/10/22 08:00:49;;;;;;;;;;;;;;;9.38;100.00;99663.13;5085456;28;19955;-76
2023/10/22 08:03:33;;;;;;;;;;;;;;;9.52;100.00;99668.69;5093551;28;19919;-76
2023/10/22 08:06:17;;;;;;;;;;;;;;;9.65;100.00;99666.22;5094917;28;20011;-76
2023/10/22 08:09:01;;;;;;;;;;;;;;;9.79;100.00;99673.41;5099824;28;19933;-76
2023/10/22 08:11:45;;;;;;;;;;;;;;;9.90;100.00;99671.25;5106457;28;19919;-76
2023/10/22 08:14:29;;;;;;;;;;;;;;;10.04;100.00;99679.53;5103701;28;19931;-76
2023/10/22 08:17:13;;;;;;;;;;;;;;;10.19;100.00;99686.69;5082208;28;19993;-76
2023/10/22 08:19:57;;;;;;;;;;;;;;;10.32;100.00;99685.88;5072706;28;20252;-76
2023/10/22 08:22:41;;;;;;;;;;;;;;;10.46;100.00;99672.78;5098223;28;19926;-76
2023/10/22 08:25:25;;;;;;;;;;;;;;;10.60;100.00;99681.06;5092611;28;19935;-76
2023/10/22 08:28:08;;;;;;;;;;;;;;;10.78;100.00;99686.75;5088421;28;19922;-76
2023/10/22 08:30:52;;;;;;;;;;;;;;;10.91;100.00;99681.13;5100443;28;19919;-76
2023/10/22 08:33:37;;;;;;;;;;;;;;;11.11;100.00;99681.72;5079508;28;19920;-76
2023/10/22 08:36:20;;;;;;;;;;;;;;;11.24;100.00;99678.06;5090954;28;19966;-76
2023/10/22 08:39:05;;;;;;;;;;;;;;;11.40;100.00;99682.06;5098707;28;20371;-76
2023/10/22 08:41:51;;;;;;;;;;;;;;;11.57;100.00;99686.06;5075782;28;19923;-76
2023/10/22 08:44:39;;;;;;;;;;;;;;;11.74;100.00;99688.09;5099353;28;19934;-76
2023/10/22 08:47:23;;;;;;;;;;;;;;;11.89;100.00;99689.63;5093271;28;20379;-76
2023/10/22 08:50:07;;;;;;;;;;;;;;;12.05;100.00;99690.84;5094703;28;19918;-76
2023/10/22 08:52:51;;;;;;;;;;;;;;;12.20;100.00;99686.75;5087862;28;19919;-76
2023/10/22 08:55:35;;;;;;;;;;;;;;;12.32;100.00;99691.72;5079362;28;20376;-76
2023/10/22 08:58:19;;;;;;;;;;;;;;;12.48;100.00;99693.69;5091150;28;19928;-76
2023/10/22 09:01:04;;;;;;;;;;;;;;;12.62;100.00;99687.97;5087682;28;19919;-76
2023/10/22 09:03:48;;;;;;;;;;;;;;;12.78;100.00;99696.63;5089732;28;19931;-76
2023/10/22 09:06:32;;;;;;;;;;;;;;;12.93;100.00;99693.34;5099798;28;20314;-76
2023/10/22 09:09:29;;;;;;;;;;;;;;;13.07;100.00;99698.75;5098899;28;20011;-76
2023/10/22 09:12:13;;;;;;;;;;;;;;;13.23;100.00;99690.66;5082774;28;19966;-76
2023/10/22 09:14:58;;;;;;;;;;;;;;;13.36;100.00;99695.25;5099162;28;20337;-76
2023/10/22 09:17:42;;;;;;;;;;;;;;;13.52;100.00;99703.09;5098273;28;20310;-76
2023/10/22 09:20:27;;;;;;;;;;;;;;;13.68;100.00;99689.38;5093166;28;19935;-76
2023/10/22 09:23:21;;;;;;;;;;;;;;;13.78;100.00;99697.41;5079633;28;20009;-76
2023/10/22 09:26:07;;;;;;;;;;;;;;;13.92;100.00;99700.78;5096167;28;20324;-76
2023/10/22 09:29:03;;;;;;;;;;;;;;;14.06;100.00;99694.94;5092825;28;19981;-76
2023/10/22 09:31:51;;;;;;;;;;;;;;;14.23;100.00;99691.22;5092452;28;19967;-76
2023/10/22 09:34:35;;;;;;;;;;;;;;;14.35;100.00;99696.91;5086119;28;19985;-76
2023/10/22 09:37:18;;;;;;;;;;;;;;;14.51;100.00;99705.50;5095248;28;19931;-76
2023/10/22 09:40:02;;;;;;;;;;;;;;;14.65;100.00;99710.84;5098234;28;20011;-76
2023/10/22 09:42:47;;;;;;;;;;;;;;;14.74;100.00;99701.25;5073659;28;19961;-76
2023/10/22 09:45:31;;;;;;;;;;;;;;;14.84;100.00;99702.78;5096585;28;19923;-76
2023/10/22 09:48:15;;;;;;;;;;;;;;;14.96;100.00;99697.28;5078614;28;19939;-73
2023/10/22 09:51:00;;;;;;;;;;;;;;;15.06;100.00;99701.59;5098090;28;19923;-73
2023/10/22 09:53:50;;;;;;;;;;;;;;;15.20;100.00;99698.50;5084896;28;19919;-73
2023/10/22 09:56:38;;;;;;;;;;;;;;;15.32;100.00;99701.38;5097969;28;20397;-73
2023/10/22 09:59:25;;;;;;;;;;;;;;;15.43;100.00;99710.09;5083517;28;19919;-74
2023/10/22 10:02:10;;;;;;;;;;;;;;;15.53;100.00;99704.06;5091250;28;19928;-73
2023/10/22 10:04:54;;;;;;;;;;;;;;;15.66;100.00;99702.13;5091661;28;19919;-73
2023/10/22 10:07:38;;;;;;;;;;;;;;;15.72;100.00;99706.34;5083268;28;20027;-73
2023/10/22 10:10:24;;;;;;;;;;;;;;;15.83;100.00;99693.53;5087192;28;19965;-73
2023/10/22 10:13:08;;;;;;;;;;;;;;;15.92;100.00;99698.22;5097561;28;19918;-73
2023/10/22 10:16:12;;;;;;;;;;;;;;;16.00;100.00;99698.09;5097323;28;19927;-73
2023/10/22 10:18:59;;;;;;;;;;;;;;;16.11;100.00;99700.44;5097857;28;20390;-73
2023/10/22 10:21:47;;;;;;;;;;;;;;;16.20;100.00;99698.31;5097523;28;19919;-73
2023/10/22 10:24:31;;;;;;;;;;;;;;;16.27;100.00;99701.34;5098115;28;19958;-73
2023/10/22 10:27:15;;;;;;;;;;;;;;;16.37;100.00;99697.22;5077751;28;20004;-74
2023/10/22 10:30:16;;;;;;;;;;;;;;;16.44;100.00;99705.88;5097224;28;19922;-74
2023/10/22 10:33:00;;;;;;;;;;;;;;;16.54;100.00;99699.75;5079759;28;19923;-74
2023/10/22 10:35:47;;;;;;;;;;;;;;;16.59;100.00;99699.53;5094983;28;19922;-74
2023/10/22 10:38:31;;;;;;;;;;;;;;;16.68;100.00;99700.19;5090867;28;19969;-74
2023/10/22 10:41:24;;;;;;;;;;;;;;;16.75;100.00;99703.22;5097156;28;19959;-74
2023/10/22 10:44:09;;;;;;;;;;;;;;;16.83;100.00;99706.28;5079928;28;19942;-74
2023/10/22 10:46:53;;;;;;;;;;;;;;;16.89;100.00;99710.47;5094129;28;19932;-73
2023/10/22 10:49:56;;;;;;;;;;;;;;;16.96;100.00;99716.25;5090017;28;19994;-73
2023/10/22 10:52:46;;;;;;;;;;;;;;;17.05;100.00;99719.75;5079225;28;20446;-73
2023/10/22 10:55:32;;;;;;;;;;;;;;;17.14;100.00;99705.56;5097182;28;19923;-74
2023/10/22 10:58:17;;;;;;;;;;;;;;;17.18;100.00;99718.50;5092996;28;19961;-73
2023/10/22 11:01:01;;;;;;;;;;;;;;;17.25;100.00;99719.91;5085397;28;19919;-74
2023/10/22 11:03:44;;;;;;;;;;;;;;;17.26;100.00;99719.53;5108974;28;19958;-73
2023/10/22 11:06:28;;;;;;;;;;;;;;;17.28;100.00;99716.38;5108532;28;19943;-73
2023/10/22 11:09:12;;;;;;;;;;;;;;;17.33;100.00;99722.53;5090804;28;19927;-73
2023/10/22 11:12:03;;;;;;;;;;;;;;;17.42;100.00;99722.38;5064595;28;19919;-73
2023/10/22 11:14:52;;;;;;;;;;;;;;;17.52;100.00;99723.81;5095041;28;19980;-73
2023/10/22 11:17:36;;;;;;;;;;;;;;;17.62;100.00;99718.50;5078315;28;19918;-73
2023/10/22 11:20:20;;;;;;;;;;;;;;;17.72;100.00;99719.97;5076126;28;19923;-74
2023/10/22 11:23:15;;;;;;;;;;;;;;;17.82;100.00;99721.44;5097798;28;19965;-74
2023/10/22 11:25:59;;;;;;;;;;;;;;;17.97;100.00;99725.41;5080507;28;19923;-74
2023/10/22 11:28:43;;;;;;;;;;;;;;;18.06;100.00;99729.69;5091408;28;19934;-74
2023/10/22 11:31:27;;;;;;;;;;;;;;;18.18;100.00;99730.75;5090592;28;19924;-74
2023/10/22 11:34:17;;;;;;;;;;;;;;;18.27;100.00;99720.13;5095948;28;19957;-74
2023/10/22 11:37:01;;;;;;;;;;;;;;;18.35;100.00;99718.31;5086210;28;19928;-74
2023/10/22 11:39:45;;;;;;;;;;;;;;;18.39;100.00;99719.22;5096588;28;19919;-74
2023/10/22 11:42:32;;;;;;;;;;;;;;;18.45;100.00;99720.56;5097633;28;19951;-74
2023/10/22 11:45:16;;;;;;;;;;;;;;;18.49;100.00;99713.81;5094872;28;20279;-74
2023/10/22 11:48:12;;;;;;;;;;;;;;;18.59;100.00;99712.44;5083084;28;20001;-74
2023/10/22 11:50:58;;;;;;;;;;;;;;;18.63;100.00;99713.34;5089626;28;20370;-74
2023/10/22 11:53:48;;;;;;;;;;;;;;;18.62;100.00;99713.72;5089181;28;20363;-74
2023/10/22 11:56:32;;;;;;;;;;;;;;;18.66;100.00;99714.59;5082155;28;19923;-74
2023/10/22 11:59:16;;;;;;;;;;;;;;;18.65;100.00;99715.78;5097517;28;20456;-74
2023/10/22 12:02:00;;;;;;;;;;;;;;;18.64;100.00;99708.56;5099914;28;19946;-74
2023/10/22 12:04:44;;;;;;;;;;;;;;;18.71;100.00;99703.06;5089906;28;19935;-74
2023/10/22 12:07:28;;;;;;;;;;;;;;;19.12;100.00;99698.75;5091167;28;20005;-74
2023/10/22 12:10:12;;;;;;;;;;;;;;;19.15;100.00;99694.38;5104247;28;19978;-74
2023/10/22 12:12:56;;;;;;;;;;;;;;;19.52;100.00;99696.66;5099685;28;19927;-74
2023/10/22 12:15:40;;;;;;;;;;;;;;;19.36;100.00;99693.94;5093452;28;19939;-74
2023/10/22 12:18:24;;;;;;;;;;;;;;;19.02;100.00;99695.69;5087544;28;20042;-74
2023/10/22 12:21:08;;;;;;;;;;;;;;;18.90;100.00;99691.84;5097733;28;19926;-74
2023/10/22 12:23:52;;;;;;;;;;;;;;;18.85;100.00;99696.97;5099538;28;20004;-74
2023/10/22 12:26:36;;;;;;;;;;;;;;;18.78;100.00;99697.63;5099527;28;19933;-74
2023/10/22 12:29:20;;;;;;;;;;;;;;;18.77;100.00;99696.00;5099515;28;19935;-74
2023/10/22 12:32:04;;;;;;;;;;;;;;;18.81;100.00;99694.09;5081608;28;20003;-74
2023/10/22 12:34:48;;;;;;;;;;;;;;;18.84;100.00;99695.34;5093050;28;19973;-74
2023/10/22 12:37:33;;;;;;;;;;;;;;;18.71;100.00;99692.63;5099108;28;19970;-74
2023/10/22 12:40:17;;;;;;;;;;;;;;;18.74;100.00;99696.72;5095398;28;19959;-74
2023/10/22 12:43:01;;;;;;;;;;;;;;;18.73;100.00;99687.44;5076010;28;19922;-74
2023/10/22 12:45:45;;;;;;;;;;;;;;;18.72;100.00;99685.00;5086624;28;19965;-74
2023/10/22 12:48:29;;;;;;;;;;;;;;;18.84;100.00;99686.91;5099754;28;19920;-74
2023/10/22 12:51:12;;;;;;;;;;;;;;;18.85;100.00;99686.53;5093336;28;19920;-74
2023/10/22 12:53:57;;;;;;;;;;;;;;;18.92;100.00;99686.69;5079483;28;19959;-74
2023/10/22 12:56:41;;;;;;;;;;;;;;;18.94;100.00;99689.09;5123515;27;19946;-74
2023/10/22 12:59:27;;;;;;;;;;;;;;;19.00;100.00;99692.44;5078417;28;19958;-74
2023/10/22 13:02:12;;;;;;;;;;;;;;;19.01;100.00;99694.88;5098900;28;19934;-74
2023/10/22 13:04:55;;;;;;;;;;;;;;;18.99;100.00;99691.63;5096818;28;19919;-74
2023/10/22 13:07:40;;;;;;;;;;;;;;;19.04;100.00;99693.34;5081400;28;19923;-74
2023/10/22 13:10:24;;;;;;;;;;;;;;;19.03;100.00;99686.06;5078379;28;19951;-74
2023/10/22 13:13:08;;;;;;;;;;;;;;;19.05;100.00;99694.97;5089045;28;20385;-74
2023/10/22 13:15:52;;;;;;;;;;;;;;;19.01;100.00;99691.28;5098240;28;19923;-74
2023/10/22 13:18:36;;;;;;;;;;;;;;;19.03;100.00;99683.25;5098060;28;19976;-74
2023/10/22 13:21:20;;;;;;;;;;;;;;;19.01;100.00;99694.88;5098472;28;19923;-74
2023/10/22 13:24:04;;;;;;;;;;;;;;;19.04;100.00;99690.53;5094441;28;19920;-74
2023/10/22 13:26:48;;;;;;;;;;;;;;;19.02;100.00;99698.50;5092421;28;19931;-74
2023/10/22 13:29:32;;;;;;;;;;;;;;;18.92;100.00;99695.13;5085522;28;19930;-74
2023/10/22 13:32:17;;;;;;;;;;;;;;;18.92;100.00;99697.13;5099046;28;19926;-74
2023/10/22 13:35:00;;;;;;;;;;;;;;;18.83;100.00;99694.50;5081871;28;19923;-74
2023/10/22 13:37:45;;;;;;;;;;;;;;;18.81;100.00;99694.09;5080270;28;19977;-74
2023/10/22 13:40:29;;;;;;;;;;;;;;;18.74;100.00;99691.09;5109632;28;20084;-74
2023/10/22 13:43:13;;;;;;;;;;;;;;;18.69;100.00;99696.97;5079087;28;19933;-74
2023/10/22 13:45:56;;;;;;;;;;;;;;;18.60;100.00;99696.38;5092351;28;20181;-74
2023/10/22 13:48:40;;;;;;;;;;;;;;;18.51;100.00;99700.22;5096103;28;19923;-74
2023/10/22 13:51:24;;;;;;;;;;;;;;;18.44;100.00;99705.69;5083604;28;19954;-74
2023/10/22 13:54:08;;;;;;;;;;;;;;;18.41;100.00;99702.78;5071835;28;19919;-74
2023/10/22 13:56:52;;;;;;;;;;;;;;;18.34;100.00;99700.63;5098627;28;19920;-74
2023/10/22 13:59:37;;;;;;;;;;;;;;;18.31;100.00;99701.38;5091741;28;20462;-74
2023/10/22 14:02:21;;;;;;;;;;;;;;;18.26;100.00;99705.28;5097784;28;20393;-74
2023/10/22 14:05:07;;;;;;;;;;;;;;;18.21;100.00;99699.94;5082080;28;19961;-74
2023/10/22 14:07:53;;;;;;;;;;;;;;;18.14;100.00;99696.97;5096028;28;20332;-74
2023/10/22 14:10:39;;;;;;;;;;;;;;;18.09;100.00;99692.44;5098364;28;19957;-74